Time;durP1;ratioP1;P1;durP2;ratioP2;P2;SDS_P1;SDS_P2;PMS_P1;PMS_P2;Temp;Humidity;BMP_temperature;BMP_pressure;BME280_temperature;BME280_humidity;BME280_pressure;Samples;Min_cycle;Max_cycle;Signal;HPM_P1;HPM_P2
2023/10/18 00:01:05;;;;;;;;;;;3.50;99.90;;;;;;5043508;28;20125;-64
2023/10/18 00:03:33;;;;;;;12.35;8.88;;;3.50;99.90;;;;;;5031571;28;19921;-64
2023/10/18 00:06:11;;;;;;;13.05;10.00;;;3.40;99.90;;;;;;5042495;28;20041;-64
2023/10/18 00:08:46;;;;;;;14.00;9.47;;;3.40;99.90;;;;;;5034823;28;20053;-64
2023/10/18 00:11:17;;;;;;;12.25;9.23;;;3.40;99.90;;;;;;5042334;28;20038;-64
2023/10/18 00:13:50;;;;;;;16.65;10.52;;;3.40;99.90;;;;;;5045411;28;20041;-64
2023/10/18 00:16:22;;;;;;;16.00;10.52;;;3.30;99.90;;;;;;5041819;28;20041;-64
2023/10/18 00:18:53;;;;;;;14.05;10.38;;;3.30;99.90;;;;;;5040867;28;20124;-64
2023/10/18 00:21:26;;;;;;;14.63;10.25;;;3.30;99.90;;;;;;5044680;28;20037;-64
2023/10/18 00:23:54;;;;;;;12.35;9.60;;;3.30;99.90;;;;;;5036894;28;20472;-64
2023/10/18 00:26:21;;;;;;;15.25;10.82;;;3.30;99.90;;;;;;5036042;28;20516;-64
2023/10/18 00:28:55;;;;;;;17.30;11.00;;;3.30;99.90;;;;;;5046036;28;20531;-64
2023/10/18 00:31:27;;;;;;;13.98;10.32;;;3.30;99.90;;;;;;5050890;28;20136;-64
2023/10/18 00:33:54;;;;;;;14.70;10.00;;;3.30;99.90;;;;;;5031370;28;20043;-64
2023/10/18 00:36:26;;;;;;;13.77;10.15;;;3.20;99.90;;;;;;5043464;28;20448;-64
2023/10/18 00:38:58;;;;;;;13.93;10.55;;;3.20;99.90;;;;;;5046113;28;20041;-64
2023/10/18 00:41:33;;;;;;;13.27;9.80;;;3.20;99.90;;;;;;5039052;28;20050;-64
2023/10/18 00:44:09;;;;;;;12.77;10.27;;;3.20;99.90;;;;;;5044713;28;20408;-64
2023/10/18 00:46:41;;;;;;;15.48;10.40;;;3.20;99.90;;;;;;5036929;28;20037;-64
2023/10/18 00:49:14;;;;;;;12.93;10.20;;;3.20;99.90;;;;;;5042350;28;20041;-64
2023/10/18 00:51:46;;;;;;;14.63;10.88;;;3.20;99.90;;;;;;5054796;28;20048;-64
2023/10/18 00:54:19;;;;;;;13.73;9.98;;;3.20;99.90;;;;;;5045424;28;20053;-64
2023/10/18 00:56:51;;;;;;;13.32;10.43;;;3.10;99.90;;;;;;5029577;28;20041;-64
2023/10/18 00:59:26;;;;;;;15.88;10.15;;;3.10;99.90;;;;;;5042071;28;20041;-64
2023/10/18 01:02:14;;;;;;;14.05;9.90;;;3.10;99.90;;;;;;5043232;28;20124;-64
2023/10/18 01:04:52;;;;;;;13.15;10.02;;;3.10;99.90;;;;;;5037289;28;20513;-64
2023/10/18 01:07:24;;;;;;;16.55;10.38;;;3.10;99.90;;;;;;5035285;28;20038;-64
2023/10/18 01:09:53;;;;;;;13.13;9.63;;;3.10;99.90;;;;;;5044055;28;20174;-64
2023/10/18 01:12:25;;;;;;;14.93;10.85;;;3.00;99.90;;;;;;5041418;28;20562;-64
2023/10/18 01:14:57;;;;;;;14.68;10.48;;;3.00;99.90;;;;;;5042274;28;20052;-64
2023/10/18 01:17:29;;;;;;;14.02;10.25;;;3.00;99.90;;;;;;5028829;28;20041;-64
2023/10/18 01:20:27;;;;;;;16.60;11.10;;;3.00;99.90;;;;;;5033590;28;20041;-64
2023/10/18 01:22:54;;;;;;;14.05;9.73;;;3.00;99.90;;;;;;5044947;28;20618;-64
2023/10/18 01:25:27;;;;;;;14.13;10.63;;;2.90;99.90;;;;;;5056993;28;20120;-64
2023/10/18 01:27:55;;;;;;;14.38;10.55;;;2.90;99.90;;;;;;5049439;28;20116;-64
2023/10/18 01:30:29;;;;;;;15.40;10.25;;;2.90;99.90;;;;;;5051966;28;20041;-64
2023/10/18 01:32:57;;;;;;;15.70;9.93;;;2.90;99.90;;;;;;5044557;28;20048;-64
2023/10/18 01:35:31;;;;;;;14.25;11.45;;;2.90;99.90;;;;;;5050921;28;20045;-64
2023/10/18 01:38:05;;;;;;;14.18;10.20;;;2.90;99.90;;;;;;5040308;28;20043;-63
2023/10/18 01:40:44;;;;;;;14.73;10.73;;;2.80;99.90;;;;;;5056568;28;20126;-64
2023/10/18 01:43:11;;;;;;;13.27;9.95;;;2.80;99.90;;;;;;5047201;28;20033;-64
2023/10/18 01:45:48;;;;;;;19.00;11.03;;;2.80;99.90;;;;;;5041040;28;20038;-64
2023/10/18 01:48:20;;;;;;;13.82;10.23;;;2.80;99.90;;;;;;5045696;28;20539;-64
2023/10/18 01:50:52;;;;;;;15.05;10.77;;;2.80;99.90;;;;;;5059617;28;20042;-64
2023/10/18 01:53:26;;;;;;;18.25;10.85;;;2.80;99.90;;;;;;5034307;28;20501;-64
2023/10/18 01:56:01;;;;;;;15.95;10.60;;;2.80;99.90;;;;;;5045431;28;20052;-64
2023/10/18 01:58:35;;;;;;;15.50;11.18;;;2.80;99.90;;;;;;5044722;28;20128;-64
2023/10/18 02:01:11;;;;;;;13.48;10.32;;;2.70;99.90;;;;;;5031997;28;20409;-65
2023/10/18 02:03:44;;;;;;;13.27;9.60;;;2.70;99.90;;;;;;5046181;28;20507;-64
2023/10/18 02:06:17;;;;;;;15.70;11.38;;;2.70;99.90;;;;;;5047580;28;20616;-64
2023/10/18 02:08:50;;;;;;;16.00;10.52;;;2.70;99.90;;;;;;5037593;28;20052;-64
2023/10/18 02:11:22;;;;;;;16.23;11.43;;;2.70;99.90;;;;;;5047497;28;20052;-64
2023/10/18 02:13:53;;;;;;;16.50;10.60;;;2.70;99.90;;;;;;5034578;28;20050;-64
2023/10/18 02:16:25;;;;;;;15.70;10.90;;;2.70;99.90;;;;;;5046363;28;20048;-64
2023/10/18 02:18:57;;;;;;;16.23;11.68;;;2.70;99.90;;;;;;5047386;28;20124;-64
2023/10/18 02:21:29;;;;;;;14.55;11.10;;;2.80;99.90;;;;;;5040783;28;20060;-64
2023/10/18 02:24:01;;;;;;;16.00;10.93;;;2.70;99.90;;;;;;5046185;28;20505;-64
2023/10/18 02:26:33;;;;;;;14.07;10.52;;;2.70;99.90;;;;;;5047884;28;20037;-64
2023/10/18 02:29:11;;;;;;;15.85;10.73;;;2.70;99.90;;;;;;5043137;28;20044;-64
2023/10/18 02:31:43;;;;;;;14.63;10.85;;;2.70;99.90;;;;;;5022154;28;20052;-64
2023/10/18 02:34:15;;;;;;;15.45;11.40;;;2.70;99.90;;;;;;5041846;28;20048;-64
2023/10/18 02:36:47;;;;;;;17.00;10.82;;;2.70;99.90;;;;;;5047156;28;20041;-64
2023/10/18 02:39:23;;;;;;;14.23;10.40;;;2.70;99.90;;;;;;5045393;28;20132;-63
2023/10/18 02:41:56;;;;;;;16.83;11.48;;;2.70;99.90;;;;;;5022313;28;20051;-64
2023/10/18 02:44:29;;;;;;;16.27;10.70;;;2.60;99.90;;;;;;5045530;28;20041;-64
2023/10/18 02:47:11;;;;;;;14.90;10.20;;;2.60;99.90;;;;;;5049181;28;20051;-64
2023/10/18 02:49:52;;;;;;;18.27;11.43;;;2.60;99.90;;;;;;5046359;28;20046;-64
2023/10/18 02:52:30;;;;;;;14.35;10.45;;;2.60;99.90;;;;;;5041966;28;20501;-64
2023/10/18 02:55:02;;;;;;;17.17;11.20;;;2.60;99.90;;;;;;5060218;28;20041;-64
2023/10/18 02:57:34;;;;;;;17.13;11.60;;;2.60;99.90;;;;;;5043310;28;20123;-64
2023/10/18 03:00:11;;;;;;;18.08;11.50;;;2.60;99.90;;;;;;5054999;28;20562;-64
2023/10/18 03:02:44;;;;;;;17.02;11.18;;;2.60;99.90;;;;;;5037239;28;20576;-67
2023/10/18 03:05:19;;;;;;;16.30;10.93;;;2.70;99.90;;;;;;5038498;28;20508;-64
2023/10/18 03:07:51;;;;;;;16.00;11.85;;;2.70;99.90;;;;;;5037275;28;20087;-64
2023/10/18 03:10:32;;;;;;;15.50;11.80;;;2.70;99.90;;;;;;5046022;28;20527;-64
2023/10/18 03:13:01;;;;;;;17.15;11.50;;;2.70;99.90;;;;;;5048491;28;20127;-64
2023/10/18 03:15:32;;;;;;;14.35;11.70;;;2.70;99.90;;;;;;5038567;28;20491;-64
2023/10/18 03:18:02;;;;;;;17.80;12.32;;;2.70;99.90;;;;;;5047905;28;20404;-64
2023/10/18 03:20:37;;;;;;;17.60;12.15;;;2.70;99.90;;;;;;5048074;28;20033;-64
2023/10/18 03:23:04;;;;;;;17.23;11.90;;;2.80;99.90;;;;;;5048106;28;20041;-64
2023/10/18 03:25:36;;;;;;;17.92;11.90;;;2.80;99.90;;;;;;5046480;28;20181;-64
2023/10/18 03:28:04;;;;;;;17.33;12.63;;;2.80;99.90;;;;;;5042930;28;20033;-64
2023/10/18 03:30:46;;;;;;;14.00;10.02;;;2.80;99.90;;;;;;5042483;28;20060;-64
2023/10/18 03:33:19;;;;;;;12.57;10.52;;;2.90;99.90;;;;;;5039480;28;20102;-64
2023/10/18 03:36:06;;;;;;;15.77;10.45;;;2.90;99.90;;;;;;5041284;28;20048;-64
2023/10/18 03:38:41;;;;;;;13.88;10.32;;;2.90;99.90;;;;;;5040347;28;20528;-64
2023/10/18 03:41:17;;;;;;;14.18;9.88;;;2.90;99.90;;;;;;5042327;28;20170;-64
2023/10/18 03:43:49;;;;;;;14.60;11.18;;;2.90;99.90;;;;;;5034543;28;20045;-64
2023/10/18 03:46:29;;;;;;;13.90;10.68;;;2.90;99.90;;;;;;5039352;28;20037;-64
2023/10/18 03:49:01;;;;;;;17.00;11.07;;;2.90;99.90;;;;;;5042563;28;20132;-64
2023/10/18 03:51:33;;;;;;;11.38;8.90;;;2.90;99.90;;;;;;5044259;28;20046;-64
2023/10/18 03:54:00;;;;;;;11.35;7.95;;;2.90;99.90;;;;;;5046070;28;20092;-64
2023/10/18 03:56:36;;;;;;;12.75;10.20;;;2.90;99.90;;;;;;5039770;28;20055;-64
2023/10/18 03:59:21;;;;;;;13.13;9.80;;;2.80;99.90;;;;;;5042844;28;20037;-64
2023/10/18 04:02:36;;;;;;;14.90;11.73;;;2.70;99.90;;;;;;5039423;28;20535;-64
2023/10/18 04:04:48;;;;;;;15.13;9.73;;;2.70;99.90;;;;;;5034258;28;20515;-64
2023/10/18 04:07:20;;;;;;;13.38;10.18;;;2.70;99.90;;;;;;5040514;28;20091;-64
2023/10/18 04:09:54;;;;;;;16.00;11.48;;;2.60;99.90;;;;;;5044168;28;20049;-66
2023/10/18 04:12:27;;;;;;;13.15;9.70;;;2.60;99.90;;;;;;5042049;28;20037;-64
2023/10/18 04:14:58;;;;;;;15.02;9.02;;;2.70;99.90;;;;;;5040061;28;20049;-65
2023/10/18 04:17:36;;;;;;;13.02;9.38;;;2.70;99.90;;;;;;5043453;28;20041;-64
2023/10/18 04:22:42;;;;;;;14.18;10.55;;;2.70;99.90;;;;;;5038883;28;20498;-64
2023/10/18 04:25:17;;;;;;;14.52;12.23;;;2.60;99.90;;;;;;5039450;28;20035;-64
2023/10/18 04:27:48;;;;;;;17.60;12.25;;;2.70;99.90;;;;;;5043512;28;20568;-64
2023/10/18 04:30:24;;;;;;;13.77;10.43;;;2.70;99.90;;;;;;5045520;28;20095;-65
2023/10/18 04:33:21;;;;;;;12.02;9.75;;;2.60;99.90;;;;;;5041899;28;20412;-64
2023/10/18 04:35:52;;;;;;;14.52;9.93;;;2.60;99.90;;;;;;5045660;28;20041;-64
2023/10/18 04:38:30;;;;;;;14.93;11.73;;;2.60;99.90;;;;;;5040491;28;20128;-67
2023/10/18 04:43:33;;;;;;;24.02;15.38;;;2.60;99.90;;;;;;5035057;28;20045;-64
2023/10/18 04:46:14;;;;;;;18.05;12.82;;;2.70;99.90;;;;;;5038755;28;20075;-64
2023/10/18 04:54:01;;;;;;;19.83;13.80;;;2.80;99.90;;;;;;5036638;28;20099;-64
2023/10/18 04:56:46;;;;;;;18.13;13.02;;;2.80;99.90;;;;;;5042742;28;20586;-64
2023/10/18 05:04:32;;;;;;;15.75;11.55;;;3.00;99.90;;;;;;5037852;28;20114;-64
2023/10/18 05:07:14;;;;;;;19.75;12.20;;;3.10;99.90;;;;;;5020506;28;20091;-64
2023/10/18 05:09:46;;;;;;;19.50;12.52;;;3.10;99.90;;;;;;5038862;28;20048;-64
2023/10/18 05:17:32;;;;;;;23.38;14.27;;;3.10;99.90;;;;;;5053765;28;20059;-64
2023/10/18 05:22:58;;;;;;;26.73;16.45;;;3.10;99.90;;;;;;5039911;28;20501;-64
2023/10/18 05:25:30;;;;;;;26.33;16.73;;;3.20;99.90;;;;;;5040695;28;20037;-64
2023/10/18 05:27:59;;;;;;;23.15;15.25;;;3.20;99.90;;;;;;5044673;28;20152;-64
2023/10/18 05:44:00;;;;;;;27.90;19.13;;;3.40;99.90;;;;;;5041060;28;20130;-64
2023/10/18 05:46:33;;;;;;;33.45;18.02;;;3.50;99.90;;;;;;5032001;28;20045;-64
2023/10/18 05:49:01;;;;;;;33.83;21.23;;;3.50;99.90;;;;;;5036902;28;20128;-64
2023/10/18 05:51:33;;;;;;;32.20;20.35;;;3.50;99.90;;;;;;5045747;28;20496;-64
2023/10/18 05:54:03;;;;;;;34.40;21.88;;;3.50;99.90;;;;;;5026200;28;20051;-64
2023/10/18 05:56:36;;;;;;;29.95;19.50;;;3.60;99.90;;;;;;5041291;28;20393;-64
2023/10/18 05:59:51;;;;;;;28.55;17.65;;;3.60;99.90;;;;;;5040429;28;20067;-64
2023/10/18 06:02:10;;;;;;;25.95;17.58;;;3.60;99.90;;;;;;5043867;28;20489;-64
2023/10/18 06:04:42;;;;;;;30.30;18.85;;;3.60;99.90;;;;;;5065908;28;20124;-64
2023/10/18 06:07:10;;;;;;;27.88;18.48;;;3.60;99.90;;;;;;5043760;28;20119;-64
2023/10/18 06:09:46;;;;;;;28.25;18.38;;;3.70;99.90;;;;;;5051175;28;20079;-64
2023/10/18 06:12:27;;;;;;;27.33;17.75;;;3.70;99.90;;;;;;5030235;28;20053;-64
2023/10/18 06:15:10;;;;;;;26.95;17.25;;;3.70;99.90;;;;;;5048983;28;20063;-64
2023/10/18 06:17:52;;;;;;;27.02;17.63;;;3.70;99.90;;;;;;5047818;28;20045;-64
2023/10/18 06:20:27;;;;;;;37.67;17.85;;;3.80;99.90;;;;;;5045130;28;20039;-65
2023/10/18 06:23:28;;;;;;;31.13;17.30;;;3.80;99.90;;;;;;5040363;28;20061;-65
2023/10/18 06:25:58;;;;;;;27.45;18.13;;;3.80;99.90;;;;;;5048744;28;20266;-64
2023/10/18 06:28:31;;;;;;;39.22;24.45;;;3.90;99.90;;;;;;5048594;28;20455;-64
2023/10/18 06:31:03;;;;;;;38.03;23.73;;;3.90;99.90;;;;;;5044197;28;20033;-64
2023/10/18 06:33:36;;;;;;;28.17;19.17;;;3.90;99.90;;;;;;5058714;28;20067;-64
2023/10/18 06:36:14;;;;;;;24.40;16.50;;;3.90;99.90;;;;;;5044523;28;20488;-64
2023/10/18 06:38:45;;;;;;;28.90;17.60;;;4.00;99.90;;;;;;5044791;28;20810;-64
2023/10/18 06:41:22;;;;;;;24.23;16.58;;;4.00;99.90;;;;;;5037249;28;21261;-64
2023/10/18 06:43:58;;;;;;;23.35;16.45;;;4.00;99.90;;;;;;5039269;28;20065;-64
2023/10/18 06:46:30;;;;;;;23.38;16.75;;;4.00;99.90;;;;;;5040839;28;20049;-65
2023/10/18 06:48:57;;;;;;;23.75;16.35;;;4.00;99.90;;;;;;5037304;28;20045;-64
2023/10/18 06:51:33;;;;;;;26.02;17.02;;;4.00;99.90;;;;;;5033943;28;20060;-64
2023/10/18 06:54:03;;;;;;;26.25;17.38;;;4.10;99.90;;;;;;5041682;28;20127;-65
2023/10/18 06:56:45;;;;;;;28.15;17.45;;;4.00;99.90;;;;;;5039375;28;20048;-64
2023/10/18 06:59:25;;;;;;;28.75;18.90;;;4.00;99.90;;;;;;5039868;28;20509;-64
2023/10/18 07:01:58;;;;;;;28.33;17.85;;;4.00;99.90;;;;;;5041965;28;20041;-64
2023/10/18 07:04:37;;;;;;;30.50;21.50;;;4.00;99.90;;;;;;5045100;28;20037;-64
2023/10/18 07:07:13;;;;;;;36.22;23.02;;;4.10;99.90;;;;;;5039974;28;20053;-64
2023/10/18 07:09:45;;;;;;;37.15;21.52;;;4.10;99.90;;;;;;5041580;28;20103;-64
2023/10/18 07:12:19;;;;;;;31.00;20.02;;;4.20;99.90;;;;;;5042748;28;20041;-64
2023/10/18 07:14:52;;;;;;;24.92;17.35;;;4.10;99.90;;;;;;5038684;28;20051;-64
2023/10/18 07:17:23;;;;;;;27.50;17.63;;;4.20;99.90;;;;;;5034446;28;20084;-64
2023/10/18 07:19:59;;;;;;;26.17;18.85;;;4.20;99.90;;;;;;5040508;28;20432;-64
2023/10/18 07:22:44;;;;;;;30.42;18.60;;;4.30;99.90;;;;;;5035813;28;20037;-64
2023/10/18 07:25:32;;;;;;;31.50;19.75;;;4.30;99.90;;;;;;5039683;28;20039;-64
2023/10/18 07:28:04;;;;;;;19.70;13.50;;;4.30;99.90;;;;;;5041546;28;20041;-64
2023/10/18 07:30:44;;;;;;;26.50;17.60;;;4.30;99.90;;;;;;5042655;28;20049;-64
2023/10/18 07:33:16;;;;;;;29.90;21.98;;;4.30;99.90;;;;;;5039840;28;20058;-64
2023/10/18 07:35:48;;;;;;;32.50;22.55;;;4.40;99.90;;;;;;5053447;28;20521;-64
2023/10/18 07:38:25;;;;;;;31.98;20.70;;;4.40;99.90;;;;;;5043738;28;20038;-64
2023/10/18 07:40:57;;;;;;;24.13;17.70;;;4.40;99.90;;;;;;5042777;28;20116;-64
2023/10/18 07:43:32;;;;;;;23.42;17.02;;;4.50;99.90;;;;;;5042118;28;20575;-64
2023/10/18 07:46:10;;;;;;;23.95;17.25;;;4.50;99.90;;;;;;5039943;28;20077;-64
2023/10/18 07:48:46;;;;;;;25.95;17.10;;;4.50;99.90;;;;;;5042591;28;20040;-64
2023/10/18 07:51:23;;;;;;;27.65;16.90;;;4.60;99.90;;;;;;5043741;28;20064;-64
2023/10/18 07:53:53;;;;;;;24.57;16.53;;;4.60;99.90;;;;;;5040954;28;20045;-64
2023/10/18 07:56:29;;;;;;;23.13;16.00;;;4.50;99.90;;;;;;5039720;28;20045;-64
2023/10/18 08:02:26;;;;;;;22.13;15.98;;;4.60;99.90;;;;;;5007577;28;20100;-64
2023/10/18 08:05:00;;;;;;;23.67;16.88;;;4.60;99.90;;;;;;5039167;28;20061;-64
2023/10/18 08:07:29;;;;;;;22.30;15.98;;;4.50;99.90;;;;;;5042047;28;20068;-64
2023/10/18 08:10:07;;;;;;;20.80;15.55;;;4.60;99.90;;;;;;5036715;28;20416;-64
2023/10/18 08:12:39;;;;;;;22.05;15.63;;;4.70;99.90;;;;;;5042404;28;20052;-64
2023/10/18 08:15:13;;;;;;;21.35;15.18;;;4.70;99.90;;;;;;5033153;28;20049;-64
2023/10/18 08:17:46;;;;;;;27.50;19.35;;;4.80;99.90;;;;;;5036082;28;20472;-64
2023/10/18 08:22:54;;;;;;;24.73;17.83;;;4.80;99.90;;;;;;5035286;28;20042;-64
2023/10/18 08:25:31;;;;;;;23.00;16.58;;;4.80;99.90;;;;;;5045576;28;20517;-64
2023/10/18 08:28:06;;;;;;;23.20;16.35;;;4.80;99.90;;;;;;5045081;28;20417;-64
2023/10/18 08:33:15;;;;;;;25.55;16.75;;;4.60;99.90;;;;;;5056090;28;20087;-64
2023/10/18 08:35:54;;;;;;;24.15;17.27;;;4.60;99.90;;;;;;5058205;28;20049;-64
2023/10/18 08:38:28;;;;;;;26.10;17.58;;;4.60;99.90;;;;;;5028822;28;20041;-64
2023/10/18 08:41:15;;;;;;;23.15;15.73;;;4.70;99.90;;;;;;5043147;28;20041;-65
2023/10/18 08:44:15;;;;;;;25.05;17.58;;;4.90;99.90;;;;;;5039693;28;20042;-64
2023/10/18 08:49:32;;;;;;;22.40;16.27;;;5.10;99.90;;;;;;5037577;28;20037;-64
2023/10/18 08:52:10;;;;;;;20.50;15.70;;;5.10;99.90;;;;;;5045378;28;20420;-64
2023/10/18 08:54:43;;;;;;;24.33;16.95;;;5.20;99.90;;;;;;5029338;28;20068;-64
2023/10/18 08:57:32;;;;;;;22.70;15.80;;;5.30;99.90;;;;;;5039117;28;20042;-64
2023/10/18 09:00:56;;;;;;;21.20;14.90;;;5.40;99.90;;;;;;5044957;28;20037;-64
2023/10/18 09:03:03;;;;;;;22.35;15.77;;;5.50;99.90;;;;;;5059216;28;20041;-64
2023/10/18 09:05:36;;;;;;;21.30;15.77;;;5.60;99.90;;;;;;5043295;28;20033;-64
2023/10/18 09:08:04;;;;;;;21.55;15.27;;;5.70;99.90;;;;;;5042989;28;20150;-64
2023/10/18 09:16:01;;;;;;;22.90;15.90;;;5.90;99.90;;;;;;5056171;28;20037;-64
2023/10/18 09:18:34;;;;;;;20.77;15.38;;;5.90;99.90;;;;;;5040054;28;20049;-64
2023/10/18 09:21:26;;;;;;;25.30;17.15;;;6.00;99.90;;;;;;5041813;28;20060;-64
2023/10/18 09:24:00;;;;;;;27.27;18.65;;;6.10;99.90;;;;;;5045937;28;20216;-64
2023/10/18 09:26:40;;;;;;;24.10;17.38;;;6.20;99.90;;;;;;5040727;28;20045;-64
2023/10/18 09:29:10;;;;;;;22.55;17.10;;;6.20;99.90;;;;;;5033944;28;20502;-64
2023/10/18 09:31:54;;;;;;;24.42;16.98;;;6.30;99.90;;;;;;5043415;28;20045;-64
2023/10/18 09:34:23;;;;;;;26.23;17.75;;;6.30;99.90;;;;;;5052468;28;20046;-64
2023/10/18 09:36:56;;;;;;;24.23;17.70;;;6.40;99.90;;;;;;5057990;28;20042;-64
2023/10/18 09:39:38;;;;;;;21.27;15.80;;;6.40;99.90;;;;;;5050049;28;20048;-64
2023/10/18 09:42:12;;;;;;;21.83;16.17;;;6.40;99.90;;;;;;5044691;28;20464;-64
2023/10/18 09:44:44;;;;;;;21.05;14.98;;;6.40;99.90;;;;;;5044774;28;20051;-64
2023/10/18 09:47:17;;;;;;;23.10;16.42;;;6.40;99.90;;;;;;5043621;28;20413;-64
2023/10/18 09:49:50;;;;;;;21.00;15.93;;;6.50;99.90;;;;;;5046223;28;20139;-64
2023/10/18 09:52:23;;;;;;;;;;;6.50;99.90;;;;;;5046747;28;20046;-64
2023/10/18 09:55:00;;;;;;;38.53;19.17;;;6.50;99.90;;;;;;5036276;28;19932;-64
2023/10/18 09:57:35;;;;;;;25.27;16.63;;;6.50;99.90;;;;;;5037782;28;20037;-64
2023/10/18 10:00:11;;;;;;;25.90;18.48;;;6.60;99.90;;;;;;5048400;28;20037;-64
2023/10/18 10:02:39;;;;;;;25.48;17.60;;;6.60;99.90;;;;;;5044906;28;20576;-64
2023/10/18 10:05:24;;;;;;;24.70;17.33;;;6.60;99.90;;;;;;5042171;28;20033;-64
2023/10/18 10:07:56;;;;;;;24.67;17.73;;;6.70;99.90;;;;;;5047678;28;20045;-64
2023/10/18 10:10:48;;;;;;;27.73;18.77;;;6.60;99.90;;;;;;5049048;28;20048;-64
2023/10/18 10:13:25;;;;;;;25.55;17.45;;;6.70;99.90;;;;;;5043636;28;20046;-64
2023/10/18 10:16:03;;;;;;;31.13;20.38;;;6.70;99.90;;;;;;5046383;28;20041;-64
2023/10/18 10:18:34;;;;;;;64.07;36.22;;;6.80;99.90;;;;;;5044612;28;20132;-64
2023/10/18 10:21:10;;;;;;;32.72;21.05;;;6.80;99.90;;;;;;5035295;28;20049;-64
2023/10/18 10:23:38;;;;;;;28.17;20.02;;;6.90;99.90;;;;;;5042519;28;20146;-64
2023/10/18 10:26:15;;;;;;;72.70;37.78;;;6.90;99.90;;;;;;5048268;28;20037;-64
2023/10/18 10:31:54;;;;;;;32.13;20.52;;;7.00;99.90;;;;;;5046213;28;20068;-64
2023/10/18 10:34:28;;;;;;;58.10;30.17;;;7.10;99.90;;;;;;5047743;28;20033;-64
2023/10/18 10:37:11;;;;;;;176.90;69.50;;;7.10;99.90;;;;;;5045876;28;20052;-64
2023/10/18 10:39:49;;;;;;;55.70;31.67;;;7.30;99.90;;;;;;5058635;28;20430;-64
2023/10/18 10:45:35;;;;;;;27.17;19.30;;;7.40;99.90;;;;;;5033155;28;20054;-64
2023/10/18 10:51:06;;;;;;;26.35;18.77;;;7.50;99.90;;;;;;5043241;28;20049;-64
2023/10/18 10:53:57;;;;;;;27.17;19.13;;;7.50;99.90;;;;;;5037504;28;20044;-64
2023/10/18 10:56:31;;;;;;;27.35;19.88;;;7.50;99.90;;;;;;5041572;28;20470;-64
2023/10/18 11:04:25;;;;;;;30.60;19.30;;;7.60;99.90;;;;;;5046574;28;20041;-64
2023/10/18 11:07:03;;;;;;;26.25;17.90;;;7.60;99.90;;;;;;5040081;28;20586;-64
2023/10/18 11:09:38;;;;;;;28.42;19.48;;;7.60;99.90;;;;;;5043135;28;20040;-64
2023/10/18 11:12:12;;;;;;;27.98;19.92;;;7.60;99.90;;;;;;5041334;28;20041;-64
2023/10/18 11:14:44;;;;;;;26.42;19.08;;;7.60;99.90;;;;;;5041397;28;20050;-64
2023/10/18 11:19:53;;;;;;;30.92;19.70;;;7.70;99.90;;;;;;5039257;28;20084;-64
2023/10/18 11:22:22;;;;;;;27.10;19.73;;;7.80;99.90;;;;;;5034095;28;20382;-64
2023/10/18 11:24:55;;;;;;;;;;;7.90;99.90;;;;;;5043692;28;20496;-64
2023/10/18 11:27:34;;;;;;;28.10;20.25;;;7.90;99.90;;;;;;5036577;28;20024;-64
2023/10/18 11:30:15;;;;;;;25.75;18.40;;;8.00;99.90;;;;;;5034189;28;20030;-64
2023/10/18 11:32:53;;;;;;;29.70;21.13;;;8.10;99.90;;;;;;5044329;28;20048;-64
2023/10/18 11:35:38;;;;;;;26.40;18.60;;;8.20;99.90;;;;;;5043577;28;20033;-64
2023/10/18 11:38:10;;;;;;;25.23;18.02;;;8.30;99.90;;;;;;5037850;28;20040;-64
2023/10/18 11:40:50;;;;;;;26.03;18.70;;;8.50;99.90;;;;;;5029806;28;20446;-64
2023/10/18 11:43:26;;;;;;;22.45;17.48;;;8.60;99.90;;;;;;5035001;28;20497;-64
2023/10/18 11:46:06;;;;;;;22.83;16.92;;;8.80;99.90;;;;;;5034697;28;20069;-64
2023/10/18 11:48:40;;;;;;;21.27;16.27;;;9.00;99.90;;;;;;5041802;28;20420;-64
2023/10/18 11:51:08;;;;;;;24.75;17.42;;;9.10;99.90;;;;;;5036177;28;20069;-64
2023/10/18 11:53:40;;;;;;;21.05;15.75;;;9.40;99.90;;;;;;5033960;28;20069;-64
2023/10/18 11:56:13;;;;;;;20.38;15.68;;;9.50;99.90;;;;;;5041037;28;20055;-64
2023/10/18 11:59:00;;;;;;;23.42;18.70;;;9.60;99.90;;;;;;5035698;28;20055;-64
2023/10/18 12:01:35;;;;;;;19.73;15.63;;;9.80;99.90;;;;;;5041694;28;20399;-64
2023/10/18 12:04:07;;;;;;;17.75;14.07;;;10.00;99.90;;;;;;5042308;28;20041;-64
2023/10/18 12:06:38;;;;;;;24.50;14.80;;;10.00;99.90;;;;;;5047321;28;20045;-64
2023/10/18 12:11:41;;;;;;;19.20;14.13;;;9.90;99.90;;;;;;5042266;28;20049;-64
2023/10/18 12:14:14;;;;;;;18.55;14.15;;;10.00;99.90;;;;;;5041828;28;20051;-64
2023/10/18 12:16:46;;;;;;;17.17;13.18;;;10.00;99.90;;;;;;5042942;28;20068;-64
2023/10/18 12:19:18;;;;;;;18.65;13.63;;;10.10;99.90;;;;;;5038960;28;20044;-64
2023/10/18 12:21:54;;;;;;;19.10;14.35;;;10.10;99.90;;;;;;5040643;28;20116;-64
2023/10/18 12:24:27;;;;;;;16.92;13.55;;;10.10;99.90;;;;;;5037863;28;20048;-64
2023/10/18 12:26:54;;;;;;;20.60;15.43;;;10.10;99.90;;;;;;5036558;28;20037;-64
2023/10/18 12:29:29;;;;;;;22.88;17.00;;;10.20;99.90;;;;;;5040965;28;20048;-64
2023/10/18 12:32:18;;;;;;;22.92;16.23;;;10.10;99.90;;;;;;5038126;28;20524;-64
2023/10/18 12:34:48;;;;;;;19.40;15.57;;;10.10;99.90;;;;;;5042947;28;20045;-64
2023/10/18 12:37:20;;;;;;;18.48;14.57;;;10.20;99.90;;;;;;5037946;28;20077;-64
2023/10/18 12:39:57;;;;;;;17.90;14.77;;;10.10;99.90;;;;;;5041310;28;20042;-64
2023/10/18 12:42:32;;;;;;;17.42;14.25;;;10.20;99.90;;;;;;5037888;28;20535;-64
2023/10/18 12:45:09;;;;;;;19.65;13.88;;;10.20;99.90;;;;;;5041222;28;20045;-64
2023/10/18 12:47:42;;;;;;;19.05;13.98;;;10.30;99.90;;;;;;5034272;28;20045;-64
2023/10/18 12:50:18;;;;;;;18.63;14.82;;;10.40;99.90;;;;;;5040563;28;20049;-64
2023/10/18 12:52:55;;;;;;;17.67;14.45;;;10.50;99.90;;;;;;5041905;28;20037;-64
2023/10/18 12:55:33;;;;;;;19.38;13.40;;;10.60;99.90;;;;;;5039556;28;20041;-64
2023/10/18 12:58:09;;;;;;;17.25;13.45;;;10.70;99.90;;;;;;5035367;28;20501;-64
2023/10/18 13:00:43;;;;;;;23.52;15.25;;;10.80;99.90;;;;;;5032564;28;20052;-64
2023/10/18 13:05:46;;;;;;;20.35;13.77;;;10.80;99.90;;;;;;5033469;28;20037;-64
2023/10/18 13:08:30;;;;;;;16.38;13.88;;;10.90;99.90;;;;;;5040374;28;20124;-64
2023/10/18 13:11:18;;;;;;;15.20;12.85;;;11.00;99.90;;;;;;5037708;28;20132;-64
2023/10/18 13:13:45;;;;;;;17.10;12.70;;;11.00;99.90;;;;;;5043451;28;20585;-64
2023/10/18 13:16:17;;;;;;;40.35;25.85;;;11.00;99.90;;;;;;5041432;28;20156;-64
2023/10/18 13:18:43;;;;;;;32.28;20.80;;;11.10;99.90;;;;;;5045164;28;20041;-64
2023/10/18 13:21:16;;;;;;;19.50;15.00;;;11.00;99.90;;;;;;5039510;28;20135;-64
2023/10/18 13:23:49;;;;;;;21.15;16.50;;;11.10;99.90;;;;;;5043866;28;20137;-64
2023/10/18 13:26:26;;;;;;;18.50;13.88;;;11.10;99.90;;;;;;5044972;28;20033;-64
2023/10/18 13:29:02;;;;;;;19.48;14.13;;;11.20;99.90;;;;;;5038306;28;20045;-63
2023/10/18 13:31:34;;;;;;;16.65;14.15;;;11.20;99.90;;;;;;5036265;28;20033;-63
2023/10/18 13:34:18;;;;;;;18.98;15.43;;;11.20;99.90;;;;;;5044212;28;20045;-64
2023/10/18 13:36:53;;;;;;;24.35;18.75;;;11.20;99.90;;;;;;5040105;28;20045;-64
2023/10/18 13:39:27;;;;;;;20.63;16.83;;;11.20;99.90;;;;;;5043834;28;20057;-63
2023/10/18 13:42:02;;;;;;;20.90;16.80;;;11.30;99.90;;;;;;5044088;28;20045;-64
2023/10/18 13:44:33;;;;;;;19.17;16.65;;;11.30;99.90;;;;;;5046571;28;20121;-63
2023/10/18 13:47:07;;;;;;;22.38;16.27;;;11.30;99.90;;;;;;5028776;28;20520;-63
2023/10/18 13:49:40;;;;;;;22.45;17.55;;;11.30;99.90;;;;;;5042813;28;20037;-63
2023/10/18 13:52:12;;;;;;;20.85;16.27;;;11.40;99.90;;;;;;5045522;28;20052;-63
2023/10/18 13:54:43;;;;;;;16.45;14.02;;;11.40;99.90;;;;;;5045763;28;20052;-63
2023/10/18 13:57:10;;;;;;;18.42;14.30;;;11.40;99.90;;;;;;5044037;28;20045;-63
2023/10/18 13:59:43;;;;;;;15.95;13.73;;;11.40;99.90;;;;;;5043532;28;20041;-64
2023/10/18 14:02:17;;;;;;;18.90;13.65;;;11.40;99.90;;;;;;5045007;28;20040;-64
2023/10/18 14:04:49;;;;;;;16.90;13.35;;;11.40;99.90;;;;;;5040754;28;20043;-63
2023/10/18 14:07:21;;;;;;;20.27;13.48;;;11.40;99.90;;;;;;5041518;28;20029;-64
2023/10/18 14:09:48;;;;;;;12.82;11.43;;;11.30;99.90;;;;;;5046421;28;20045;-63
2023/10/18 14:12:24;;;;;;;17.08;11.90;;;11.30;99.90;;;;;;5043704;28;20041;-64
2023/10/18 14:14:56;;;;;;;17.42;13.77;;;11.30;99.90;;;;;;5046115;28;20407;-64
2023/10/18 14:17:23;;;;;;;15.50;13.52;;;11.30;99.90;;;;;;5047307;28;20095;-63
2023/10/18 14:19:51;;;;;;;16.17;12.52;;;11.30;99.90;;;;;;5045856;28;20531;-63
2023/10/18 14:22:27;;;;;;;;;;;11.40;99.90;;;;;;5061756;28;20037;-64
2023/10/18 14:24:59;;;;;;;20.92;13.65;;;11.40;99.90;;;;;;5043969;28;19921;-63
2023/10/18 14:27:31;;;;;;;17.52;12.90;;;11.40;99.90;;;;;;5044769;28;20037;-64
2023/10/18 14:30:04;;;;;;;17.88;13.32;;;11.40;99.90;;;;;;5040330;28;20048;-63
2023/10/18 14:32:33;;;;;;;17.38;12.35;;;11.50;99.90;;;;;;5041339;28;20109;-64